Time;durP1;ratioP1;P1;durP2;ratioP2;P2;SDS_P1;SDS_P2;PMS_P1;PMS_P2;Temp;Humidity;BMP_temperature;BMP_pressure;BME280_temperature;BME280_humidity;BME280_pressure;Samples;Min_cycle;Max_cycle;Signal;HPM_P1;HPM_P2
2022/06/26 00:01:00;;;;;;;;;;;;;;;19.64;73.18;99375.00;4957202;29;20253;-67
2022/06/26 00:03:32;;;;;;;;;;;;;;;19.64;72.94;99374.16;4957479;29;19973;-67
2022/06/26 00:06:05;;;;;;;;;;;;;;;19.58;72.95;99370.06;4956847;29;20018;-66
2022/06/26 00:08:33;;;;;;;;;;;;;;;19.60;73.14;99368.28;4956940;29;19922;-66
2022/06/26 00:11:05;;;;;;;;;;;;;;;19.62;73.02;99363.88;4956596;29;19930;-66
2022/06/26 00:13:33;;;;;;;;;;;;;;;19.59;72.85;99365.75;4956995;29;19922;-66
2022/06/26 00:16:02;;;;;;;;;;;;;;;19.53;72.93;99366.03;4956988;29;20280;-66
2022/06/26 00:18:30;;;;;;;;;;;;;;;19.41;73.27;99367.38;4956961;29;19922;-66
2022/06/26 00:20:59;;;;;;;;;;;;;;;19.36;73.50;99364.13;4956860;29;19961;-66
2022/06/26 00:23:29;;;;;;;;;;;;;;;19.28;73.95;99371.31;4956794;29;20017;-64
2022/06/26 00:25:58;;;;;;;;;;;;;;;19.15;74.19;99376.16;4956829;29;20386;-64
2022/06/26 00:28:32;;;;;;;;;;;;;;;19.08;74.62;99368.69;4956330;28;20013;-64
2022/06/26 00:31:01;;;;;;;;;;;;;;;19.01;74.41;99380.19;4955620;29;19953;-64
2022/06/26 00:33:31;;;;;;;;;;;;;;;19.03;74.86;99383.56;4956711;29;20360;-64
2022/06/26 00:35:59;;;;;;;;;;;;;;;19.06;74.84;99380.84;4956157;29;19923;-64
2022/06/26 00:38:29;;;;;;;;;;;;;;;19.06;75.08;99381.69;4939791;29;19956;-64
2022/06/26 00:41:01;;;;;;;;;;;;;;;19.12;75.17;99385.81;4956626;29;19985;-64
2022/06/26 00:43:31;;;;;;;;;;;;;;;19.12;74.91;99390.97;4956296;29;19922;-64
2022/06/26 00:45:59;;;;;;;;;;;;;;;19.07;74.96;99383.41;4956164;28;20346;-64
2022/06/26 00:48:28;;;;;;;;;;;;;;;19.07;75.00;99382.56;4956126;29;20022;-64
2022/06/26 00:51:05;;;;;;;;;;;;;;;19.10;74.83;99387.59;4939110;29;20391;-64
2022/06/26 00:53:47;;;;;;;;;;;;;;;19.08;74.87;99384.22;4939066;29;19922;-64
2022/06/26 00:56:16;;;;;;;;;;;;;;;19.07;74.87;99387.72;4955977;29;19923;-63
2022/06/26 00:58:44;;;;;;;;;;;;;;;19.13;74.97;99384.88;4954869;29;20380;-64
2022/06/26 01:01:12;;;;;;;;;;;;;;;19.15;74.71;99378.75;4956035;29;20448;-64
2022/06/26 01:03:41;;;;;;;;;;;;;;;19.16;74.74;99379.59;4955955;29;20388;-64
2022/06/26 01:06:10;;;;;;;;;;;;;;;19.18;74.61;99382.94;4955746;29;20016;-64
2022/06/26 01:08:43;;;;;;;;;;;;;;;19.16;74.40;99379.59;4955850;29;19926;-64
2022/06/26 01:11:18;;;;;;;;;;;;;;;19.12;74.40;99376.25;4428841;23;19922;-68
2022/06/26 01:13:48;;;;;;;;;;;;;;;19.08;74.49;99379.03;4989807;28;20031;-69
2022/06/26 01:16:17;;;;;;;;;;;;;;;19.07;74.66;99379.97;4975020;28;19922;-68
2022/06/26 01:18:51;;;;;;;;;;;;;;;19.06;74.73;99380.84;4990154;28;19972;-68
2022/06/26 01:21:20;;;;;;;;;;;;;;;19.00;74.72;99381.97;4975776;28;19950;-68
2022/06/26 01:23:55;;;;;;;;;;;;;;;18.97;74.82;99387.25;4975423;28;19928;-68
2022/06/26 01:26:27;;;;;;;;;;;;;;;18.92;74.94;99389.16;4975063;28;19922;-68
2022/06/26 01:28:55;;;;;;;;;;;;;;;18.88;75.04;99382.44;4975352;28;20004;-69
2022/06/26 01:31:24;;;;;;;;;;;;;;;18.71;75.28;99390.81;4973824;28;19922;-68
2022/06/26 01:34:00;;;;;;;;;;;;;;;18.67;75.45;99394.44;4973908;28;20394;-68
2022/06/26 01:36:29;;;;;;;;;;;;;;;18.69;75.71;99391.81;4974005;28;19922;-68
2022/06/26 01:38:59;;;;;;;;;;;;;;;18.66;75.57;99387.59;4990503;28;19929;-68
2022/06/26 01:41:28;;;;;;;;;;;;;;;18.59;75.41;99390.47;4975642;28;20008;-68
2022/06/26 01:43:57;;;;;;;;;;;;;;;18.54;75.49;99398.41;4973765;28;19922;-68
2022/06/26 01:46:26;;;;;;;;;;;;;;;18.54;75.47;99398.41;4974049;28;19969;-68
2022/06/26 01:48:58;;;;;;;;;;;;;;;18.57;75.58;99398.25;4974171;28;19973;-68
2022/06/26 01:51:27;;;;;;;;;;;;;;;18.60;75.32;99403.31;4973754;28;19968;-68
2022/06/26 01:53:55;;;;;;;;;;;;;;;18.52;75.05;99405.34;4973964;28;19922;-68
2022/06/26 01:56:31;;;;;;;;;;;;;;;18.39;75.40;99404.09;4989976;28;20034;-68
2022/06/26 01:59:09;;;;;;;;;;;;;;;18.39;75.20;99409.25;4993055;28;19926;-68
2022/06/26 02:02:24;;;;;;;;;;;;;;;18.39;75.16;99414.44;4978876;28;20056;-68
2022/06/26 02:04:52;;;;;;;;;;;;;;;18.40;75.23;99415.28;4978667;28;20359;-68
2022/06/26 02:07:21;;;;;;;;;;;;;;;18.42;75.20;99414.34;4978556;28;20388;-68
2022/06/26 02:15:15;;;;;;;;;;;;;;;18.37;75.03;99429.16;4978467;28;19922;-68
2022/06/26 02:18:04;;;;;;;;;;;;;;;18.35;75.11;99422.34;4993389;28;19922;-68
2022/06/26 02:20:32;;;;;;;;;;;;;;;18.22;74.97;99427.13;4978139;28;20004;-69
2022/06/26 02:23:02;;;;;;;;;;;;;;;18.08;75.25;99437.09;4976916;28;19922;-69
2022/06/26 02:25:30;;;;;;;;;;;;;;;17.93;75.34;99437.63;4976862;28;20399;-68
2022/06/26 02:28:00;;;;;;;;;;;;;;;17.75;76.00;99431.38;4977150;28;20283;-68
2022/06/26 02:30:31;;;;;;;;;;;;;;;17.73;76.18;99437.47;4993286;28;19930;-68
2022/06/26 02:33:03;;;;;;;;;;;;;;;17.59;76.03;99439.66;4977122;28;19922;-68
2022/06/26 02:35:32;;;;;;;;;;;;;;;17.51;76.57;99441.63;4978441;28;19944;-69
2022/06/26 02:38:01;;;;;;;;;;;;;;;17.47;76.85;99445.19;4976640;28;20040;-69
2022/06/26 02:40:30;;;;;;;;;;;;;;;17.33;77.05;99449.06;4977780;28;19922;-68
2022/06/26 02:43:08;;;;;;;;;;;;;;;17.33;77.49;99449.06;4992818;28;19922;-68
2022/06/26 02:45:36;;;;;;;;;;;;;;;17.35;77.47;99451.56;4976597;28;20371;-68
2022/06/26 02:48:06;;;;;;;;;;;;;;;17.17;77.73;99452.16;4977648;28;19922;-69
2022/06/26 02:50:34;;;;;;;;;;;;;;;17.07;78.00;99446.44;4976650;28;19929;-69
2022/06/26 02:53:04;;;;;;;;;;;;;;;16.94;78.36;99449.44;4977608;28;19973;-68
2022/06/26 02:55:34;;;;;;;;;;;;;;;16.95;78.66;99451.13;4976329;28;19929;-69
2022/06/26 02:58:04;;;;;;;;;;;;;;;16.94;78.44;99455.44;4976311;28;19922;-68
2022/06/26 03:00:39;;;;;;;;;;;;;;;16.94;78.59;99462.34;4976500;28;19928;-69
2022/06/26 03:03:08;;;;;;;;;;;;;;;17.07;78.70;99456.75;4977436;28;19922;-69
2022/06/26 03:05:37;;;;;;;;;;;;;;;17.21;78.74;99459.75;4977348;28;19922;-68
2022/06/26 03:08:06;;;;;;;;;;;;;;;17.36;78.55;99456.69;4992480;28;19973;-68
2022/06/26 03:10:35;;;;;;;;;;;;;;;17.44;78.18;99462.44;4979396;28;20375;-68
2022/06/26 03:13:05;;;;;;;;;;;;;;;17.55;78.14;99456.13;5016175;28;19928;-68
2022/06/26 03:15:34;;;;;;;;;;;;;;;17.62;78.10;99453.31;5016321;28;19921;-69
2022/06/26 03:18:03;;;;;;;;;;;;;;;17.70;77.92;99463.38;4998918;28;19964;-69
2022/06/26 03:20:32;;;;;;;;;;;;;;;17.77;77.71;99470.88;5016545;28;20022;-69
2022/06/26 03:23:02;;;;;;;;;;;;;;;17.77;77.27;99470.03;5016670;28;20313;-69
2022/06/26 03:25:31;;;;;;;;;;;;;;;17.65;77.24;99467.84;5014845;28;19944;-69
2022/06/26 03:27:59;;;;;;;;;;;;;;;17.58;77.56;99476.69;5015916;28;19928;-69
2022/06/26 03:30:30;;;;;;;;;;;;;;;17.59;77.45;99480.97;5015251;28;19925;-69
2022/06/26 03:32:58;;;;;;;;;;;;;;;17.59;77.73;99480.97;5014877;28;19960;-69
2022/06/26 03:35:27;;;;;;;;;;;;;;;17.63;77.60;99487.72;4998405;28;19921;-68
2022/06/26 03:37:55;;;;;;;;;;;;;;;17.64;77.77;99494.53;4998238;28;19953;-68
2022/06/26 03:40:25;;;;;;;;;;;;;;;17.76;78.01;99491.56;4998239;28;19925;-69
2022/06/26 03:42:56;;;;;;;;;;;;;;;17.88;77.86;99492.00;5014430;28;19928;-69
2022/06/26 03:45:25;;;;;;;;;;;;;;;18.03;77.68;99488.06;4998145;28;19925;-69
2022/06/26 03:47:58;;;;;;;;;;;;;;;18.10;77.22;99494.72;5015783;28;19944;-69
2022/06/26 03:50:27;;;;;;;;;;;;;;;18.14;77.16;99491.13;5014330;28;19921;-69
2022/06/26 03:52:55;;;;;;;;;;;;;;;18.23;76.88;99497.72;5015306;28;19921;-68
2022/06/26 03:55:31;;;;;;;;;;;;;;;18.30;76.52;99505.22;5014580;28;19921;-68
2022/06/26 03:58:03;;;;;;;;;;;;;;;18.35;76.25;99500.72;5014505;28;20294;-69
2022/06/26 04:00:34;;;;;;;;;;;;;;;18.37;76.04;99498.94;5015365;28;19921;-68
2022/06/26 04:03:08;;;;;;;;;;;;;;;18.45;75.75;99501.25;5014002;28;19921;-69
2022/06/26 04:05:37;;;;;;;;;;;;;;;18.50;75.38;99500.19;5016139;28;19975;-68
2022/06/26 04:08:21;;;;;;;;;;;;;;;18.55;75.46;99498.28;5015529;28;20322;-68
2022/06/26 04:11:02;;;;;;;;;;;;;;;18.60;75.17;99501.56;4997619;28;20352;-68
2022/06/26 04:13:34;;;;;;;;;;;;;;;18.65;75.01;99504.81;4997466;28;19968;-69
2022/06/26 04:16:04;;;;;;;;;;;;;;;18.71;74.95;99504.59;5013999;28;19921;-69
2022/06/26 04:18:40;;;;;;;;;;;;;;;18.81;74.84;99493.94;4997561;28;19921;-69
2022/06/26 04:21:10;;;;;;;;;;;;;;;18.87;74.71;99496.28;5013574;28;19983;-68
2022/06/26 04:23:39;;;;;;;;;;;;;;;18.97;74.54;99500.22;4997620;28;19921;-69
2022/06/26 04:26:17;;;;;;;;;;;;;;;19.02;74.31;99504.31;4998043;28;19991;-69
2022/06/26 04:28:47;;;;;;;;;;;;;;;19.09;73.93;99505.78;5013999;28;19921;-68
2022/06/26 04:31:18;;;;;;;;;;;;;;;19.18;73.55;99504.56;5013597;28;20015;-68
2022/06/26 04:33:53;;;;;;;;;;;;;;;19.26;73.48;99505.13;5013566;28;19963;-68
2022/06/26 04:36:24;;;;;;;;;;;;;;;19.18;73.29;99504.56;5013502;28;19922;-68
2022/06/26 04:38:53;;;;;;;;;;;;;;;19.25;73.37;99506.00;5014647;28;20367;-68
2022/06/26 04:44:04;;;;;;;;;;;;;;;19.47;72.85;99506.91;5014516;28;20008;-68
2022/06/26 04:46:33;;;;;;;;;;;;;;;19.52;72.87;99509.31;4997364;28;20345;-69
2022/06/26 04:49:03;;;;;;;;;;;;;;;19.54;72.90;99513.50;5014487;28;19952;-69
2022/06/26 04:51:36;;;;;;;;;;;;;;;19.65;72.58;99516.50;5013448;28;19921;-69
2022/06/26 04:54:20;;;;;;;;;;;;;;;19.80;72.29;99515.91;5013347;28;19921;-69
2022/06/26 04:56:50;;;;;;;;;;;;;;;19.97;72.16;99505.69;5013215;28;19921;-69
2022/06/26 04:59:18;;;;;;;;;;;;;;;20.14;72.08;99504.97;4997097;28;19948;-69
2022/06/26 05:01:47;;;;;;;;;;;;;;;20.17;71.42;99510.03;5013507;28;20370;-68
2022/06/26 05:04:21;;;;;;;;;;;;;;;20.18;71.03;99510.91;5013114;28;19928;-68
2022/06/26 05:07:21;;;;;;;;;;;;;;;20.18;71.08;99510.91;5014345;28;19979;-68
2022/06/26 05:09:50;;;;;;;;;;;;;;;20.30;70.98;99500.84;4997033;28;19921;-68
2022/06/26 05:12:19;;;;;;;;;;;;;;;20.37;70.86;99509.22;5013457;28;19925;-68
2022/06/26 05:14:58;;;;;;;;;;;;;;;20.44;70.86;99508.88;5013684;28;19960;-68
2022/06/26 05:17:36;;;;;;;;;;;;;;;20.50;70.62;99512.97;5012371;28;20032;-68
2022/06/26 05:20:12;;;;;;;;;;;;;;;20.51;70.42;99512.06;5013651;28;20406;-68
2022/06/26 05:22:40;;;;;;;;;;;;;;;20.60;70.40;99503.88;5012238;28;20028;-68
2022/06/26 05:25:10;;;;;;;;;;;;;;;20.63;70.31;99509.78;5012035;28;19971;-68
2022/06/26 05:27:38;;;;;;;;;;;;;;;20.66;70.37;99512.22;5012091;28;19964;-69
2022/06/26 05:30:07;;;;;;;;;;;;;;;20.73;70.37;99520.59;5012011;28;19927;-68
2022/06/26 05:32:40;;;;;;;;;;;;;;;20.85;70.11;99514.81;5013604;28;19929;-68
2022/06/26 05:35:15;;;;;;;;;;;;;;;20.95;69.82;99525.63;5015730;28;19925;-68
2022/06/26 05:37:44;;;;;;;;;;;;;;;21.10;69.72;99522.38;5016855;28;20381;-68
2022/06/26 05:40:13;;;;;;;;;;;;;;;21.15;69.62;99525.59;5015413;28;19975;-67
2022/06/26 05:42:42;;;;;;;;;;;;;;;21.31;69.62;99532.59;4999360;28;19922;-68
2022/06/26 05:45:12;;;;;;;;;;;;;;;21.40;69.09;99533.94;5015313;28;19928;-69
2022/06/26 05:48:00;;;;;;;;;;;;;;;21.50;68.72;99523.97;5016616;28;19922;-69
2022/06/26 05:50:43;;;;;;;;;;;;;;;21.55;68.24;99528.00;5016442;28;19921;-68
2022/06/26 05:53:23;;;;;;;;;;;;;;;21.66;68.21;99538.75;5016424;28;19991;-68
2022/06/26 05:56:05;;;;;;;;;;;;;;;21.83;68.00;99540.53;5016269;28;19922;-68
2022/06/26 05:58:57;;;;;;;;;;;;;;;21.91;67.14;99546.19;5016489;28;20015;-68
2022/06/26 06:01:44;;;;;;;;;;;;;;;22.03;66.73;99540.41;5016586;28;20295;-68
2022/06/26 06:04:18;;;;;;;;;;;;;;;22.10;66.50;99549.56;5015484;28;19922;-68
2022/06/26 06:06:48;;;;;;;;;;;;;;;22.22;66.28;99548.16;5016099;28;19976;-68
2022/06/26 06:09:17;;;;;;;;;;;;;;;22.32;66.38;99549.34;5015274;28;19921;-69
2022/06/26 06:11:46;;;;;;;;;;;;;;;22.37;66.41;99550.78;4442803;28;15795271;-67
2022/06/26 06:14:17;;;;;;;;;;;;;;;22.41;66.59;99547.09;4978278;28;19929;-67
2022/06/26 06:16:46;;;;;;;;;;;;;;;22.56;66.71;99558.50;4993386;28;19969;-68
2022/06/26 06:19:15;;;;;;;;;;;;;;;22.62;66.33;99556.47;4993071;28;19925;-68
2022/06/26 06:21:46;;;;;;;;;;;;;;;22.64;66.09;99553.78;4976978;28;19922;-68
2022/06/26 06:24:16;;;;;;;;;;;;;;;22.66;65.89;99557.97;4977154;28;20390;-68
2022/06/26 06:26:45;;;;;;;;;;;;;;;22.65;65.53;99551.09;4993096;28;20382;-68
2022/06/26 06:29:18;;;;;;;;;;;;;;;22.80;65.39;99553.81;4993082;28;19956;-67
2022/06/26 06:31:46;;;;;;;;;;;;;;;22.90;65.15;99544.59;4977056;28;20280;-68
2022/06/26 06:34:18;;;;;;;;;;;;;;;22.94;64.85;99552.16;4976759;28;19929;-69
2022/06/26 06:36:47;;;;;;;;;;;;;;;23.00;64.70;99556.22;4976379;28;19922;-68
2022/06/26 06:39:17;;;;;;;;;;;;;;;23.08;64.51;99554.03;4977889;28;20363;-70
2022/06/26 06:41:45;;;;;;;;;;;;;;;23.18;64.20;99550.84;4976580;28;20008;-68
2022/06/26 06:44:14;;;;;;;;;;;;;;;23.38;63.89;99556.75;4976482;28;19957;-68
2022/06/26 06:47:09;;;;;;;;;;;;;;;23.56;63.57;99555.75;4971503;28;19929;-68
2022/06/26 06:49:57;;;;;;;;;;;;;;;23.67;63.24;99556.84;4976780;28;19922;-68
2022/06/26 06:52:26;;;;;;;;;;;;;;;23.69;62.99;99557.59;4992553;28;19973;-68
2022/06/26 06:54:56;;;;;;;;;;;;;;;23.72;62.76;99561.78;4992797;28;20288;-68
2022/06/26 06:57:27;;;;;;;;;;;;;;;23.86;62.00;99560.09;4992487;28;20021;-69
2022/06/26 06:59:55;;;;;;;;;;;;;;;23.96;61.63;99555.19;4976301;28;19922;-68
2022/06/26 07:02:24;;;;;;;;;;;;;;;24.04;61.10;99557.34;4992358;28;19949;-68
2022/06/26 07:04:54;;;;;;;;;;;;;;;24.09;60.84;99555.34;4978087;28;19945;-68
2022/06/26 07:07:23;;;;;;;;;;;;;;;24.19;60.40;99559.09;4992419;28;19979;-68
2022/06/26 07:09:52;;;;;;;;;;;;;;;24.25;59.68;99556.13;4976065;28;20012;-68
2022/06/26 07:12:22;;;;;;;;;;;;;;;24.33;59.32;99556.53;4992489;28;19921;-68
2022/06/26 07:14:54;;;;;;;;;;;;;;;24.40;58.99;99552.63;4977448;28;19958;-68
2022/06/26 07:17:23;;;;;;;;;;;;;;;24.63;58.86;99557.31;4977478;28;20411;-69
2022/06/26 07:19:55;;;;;;;;;;;;;;;24.74;58.45;99549.66;4975800;28;19926;-68
2022/06/26 07:22:25;;;;;;;;;;;;;;;24.74;58.03;99549.66;4975834;28;19925;-68
2022/06/26 07:25:08;;;;;;;;;;;;;;;24.71;57.89;99549.88;4977313;28;19926;-68
2022/06/26 07:28:27;;;;;;;;;;;;;;;24.82;57.99;99557.91;4972145;28;19922;-68
2022/06/26 07:30:56;;;;;;;;;;;;;;;24.87;57.75;99555.88;4977411;28;19922;-69
2022/06/26 07:36:04;;;;;;;;;;;;;;;25.26;57.78;99549.94;4976866;28;19976;-68
2022/06/26 07:38:32;;;;;;;;;;;;;;;25.42;57.09;99545.41;4977061;28;20418;-69
2022/06/26 07:41:01;;;;;;;;;;;;;;;25.60;57.08;99551.28;4976649;28;20016;-69
2022/06/26 07:43:31;;;;;;;;;;;;;;;25.67;56.35;99544.72;4976918;28;20423;-68
2022/06/26 07:45:59;;;;;;;;;;;;;;;25.79;56.11;99549.16;4991665;28;20299;-68
2022/06/26 07:48:28;;;;;;;;;;;;;;;25.91;55.70;99553.59;4943667;28;19928;-69
2022/06/26 07:50:59;;;;;;;;;;;;;;;26.14;56.46;99547.72;4991569;28;19929;-69
2022/06/26 07:53:29;;;;;;;;;;;;;;;26.24;56.00;99551.41;4976390;28;19922;-69
2022/06/26 07:55:57;;;;;;;;;;;;;;;26.28;54.67;99550.25;4975655;28;19922;-69
2022/06/26 07:58:25;;;;;;;;;;;;;;;26.34;54.17;99544.63;4976810;28;20272;-69
2022/06/26 08:00:55;;;;;;;;;;;;;;;26.42;53.95;99542.28;4976414;28;19952;-69
2022/06/26 08:03:27;;;;;;;;;;;;;;;26.36;54.94;99542.72;4976230;28;19973;-69
2022/06/26 08:05:55;;;;;;;;;;;;;;;26.29;54.50;99541.47;4976242;28;19950;-68
2022/06/26 08:08:33;;;;;;;;;;;;;;;26.49;54.57;99540.13;4976195;28;19922;-69
2022/06/26 08:11:01;;;;;;;;;;;;;;;26.61;54.24;99542.72;4985583;28;19921;-69
2022/06/26 08:13:30;;;;;;;;;;;;;;;26.83;53.48;99536.00;5014016;28;19922;-68
2022/06/26 08:16:00;;;;;;;;;;;;;;;26.91;52.76;99528.47;5014985;28;20383;-69
2022/06/26 08:18:29;;;;;;;;;;;;;;;26.90;52.82;99532.06;5015209;28;19921;-68
2022/06/26 08:22:00;;;;;;;;;;;;;;;26.86;52.51;99535.81;5014990;28;20012;-68
2022/06/26 08:23:46;;;;;;;;;;;;;;;27.05;52.65;99530.97;5014716;28;19925;-69
2022/06/26 08:26:15;;;;;;;;;;;;;;;27.13;51.95;99533.88;5015050;28;19957;-69
2022/06/26 08:28:52;;;;;;;;;;;;;;;27.23;51.29;99532.28;5015090;28;20402;-68
2022/06/26 08:31:22;;;;;;;;;;;;;;;27.31;50.39;99542.22;5014185;28;19921;-69
2022/06/26 08:33:51;;;;;;;;;;;;;;;27.36;49.94;99533.06;5014715;28;19921;-69
2022/06/26 08:36:20;;;;;;;;;;;;;;;27.47;49.79;99540.22;5014919;28;20303;-69
2022/06/26 08:38:48;;;;;;;;;;;;;;;27.62;49.29;99539.91;5014625;28;19961;-69
2022/06/26 08:41:17;;;;;;;;;;;;;;;27.82;48.65;99541.94;5014567;28;20366;-68
2022/06/26 08:43:46;;;;;;;;;;;;;;;28.05;47.78;99544.69;5014896;28;19928;-68
2022/06/26 08:46:20;;;;;;;;;;;;;;;28.14;47.33;99536.94;5014883;28;19921;-68
2022/06/26 08:48:52;;;;;;;;;;;;;;;28.38;46.49;99542.13;5014876;28;20367;-68
2022/06/26 08:51:21;;;;;;;;;;;;;;;28.67;46.07;99540.78;5014522;28;19921;-67
2022/06/26 08:53:51;;;;;;;;;;;;;;;28.85;44.93;99536.72;5014774;28;19928;-66
2022/06/26 08:56:20;;;;;;;;;;;;;;;29.03;43.13;99537.88;5014451;28;20393;-67
2022/06/26 08:58:49;;;;;;;;;;;;;;;29.10;42.67;99535.63;5014575;28;19922;-67
2022/06/26 09:01:27;;;;;;;;;;;;;;;29.35;43.07;99537.13;5014339;28;19921;-67
2022/06/26 09:03:57;;;;;;;;;;;;;;;29.61;42.45;99528.81;5014679;28;20376;-67
2022/06/26 09:06:25;;;;;;;;;;;;;;;29.78;42.24;99535.38;5014215;28;20367;-67
2022/06/26 09:09:13;;;;;;;;;;;;;;;29.72;42.79;99531.44;5014258;28;20305;-66
2022/06/26 09:11:45;;;;;;;;;;;;;;;29.98;42.57;99534.56;4982321;28;19965;-66
2022/06/26 09:14:14;;;;;;;;;;;;;;;30.26;42.36;99533.94;5014226;28;19921;-67
2022/06/26 09:16:53;;;;;;;;;;;;;;;30.31;41.39;99537.00;5014304;28;19921;-68
2022/06/26 09:19:24;;;;;;;;;;;;;;;30.17;40.42;99534.72;5014373;28;20298;-68
2022/06/26 09:22:05;;;;;;;;;;;;;;;30.29;40.87;99536.31;5014223;28;19925;-68
2022/06/26 09:24:37;;;;;;;;;;;;;;;30.44;42.24;99531.59;5014396;28;20044;-67
2022/06/26 09:27:07;;;;;;;;;;;;;;;30.49;41.95;99530.25;5014097;28;19972;-68
2022/06/26 09:29:36;;;;;;;;;;;;;;;30.60;41.72;99525.81;5014052;28;19945;-68
2022/06/26 09:32:08;;;;;;;;;;;;;;;30.48;40.81;99523.28;5013879;28;20289;-68
2022/06/26 09:34:39;;;;;;;;;;;;;;;30.42;40.29;99531.72;5014344;28;19925;-68
2022/06/26 09:37:07;;;;;;;;;;;;;;;30.17;40.28;99529.44;5013930;28;19921;-67
2022/06/26 09:39:36;;;;;;;;;;;;;;;29.74;40.58;99526.88;5014095;28;19928;-67
2022/06/26 09:42:17;;;;;;;;;;;;;;;29.50;41.02;99528.03;5013851;28;20012;-67
2022/06/26 09:45:01;;;;;;;;;;;;;;;29.36;41.15;99520.41;5009044;28;19945;-68
2022/06/26 09:47:30;;;;;;;;;;;;;;;29.45;41.32;99525.78;5014193;28;19922;-68
2022/06/26 09:50:01;;;;;;;;;;;;;;;29.56;41.68;99517.03;5014059;28;20318;-66
2022/06/26 09:52:31;;;;;;;;;;;;;;;29.29;41.14;99520.09;5013976;28;19925;-68
2022/06/26 09:55:01;;;;;;;;;;;;;;;29.33;41.37;99520.66;5013985;28;19922;-68
2022/06/26 09:57:33;;;;;;;;;;;;;;;29.51;40.95;99519.19;5014003;28;20088;-68
2022/06/26 10:00:02;;;;;;;;;;;;;;;29.59;40.69;99522.00;5013771;28;19922;-68
2022/06/26 10:08:02;;;;;;;;;;;;;;;30.20;40.91;99529.19;5013675;28;20012;-67
2022/06/26 10:10:32;;;;;;;;;;;;;;;30.35;40.97;99521.84;5013730;28;20367;-68
2022/06/26 10:13:02;;;;;;;;;;;;;;;30.38;40.24;99517.13;5013704;28;20283;-68
2022/06/26 10:15:34;;;;;;;;;;;;;;;30.33;39.92;99521.94;5013605;28;19921;-68
2022/06/26 10:18:17;;;;;;;;;;;;;;;30.49;39.80;99519.69;4996289;28;20359;-67
2022/06/26 10:20:50;;;;;;;;;;;;;;;30.52;38.74;99520.41;5017463;28;19921;-68
2022/06/26 10:23:29;;;;;;;;;;;;;;;30.41;38.56;99510.75;5016743;28;19925;-68
2022/06/26 10:25:58;;;;;;;;;;;;;;;30.43;38.32;99514.94;5016851;28;20548;-68
2022/06/26 10:28:26;;;;;;;;;;;;;;;30.55;38.44;99517.50;5017027;28;20008;-68
2022/06/26 10:30:55;;;;;;;;;;;;;;;30.60;38.10;99515.28;4999261;28;19921;-66
2022/06/26 10:33:24;;;;;;;;;;;;;;;30.60;38.52;99512.66;5016946;28;19936;-68
2022/06/26 10:35:57;;;;;;;;;;;;;;;30.44;38.71;99511.34;5016593;28;20366;-68
2022/06/26 10:38:27;;;;;;;;;;;;;;;30.20;39.08;99513.38;5016939;28;19921;-68
2022/06/26 10:43:50;;;;;;;;;;;;;;;30.52;39.06;99508.88;5017065;28;20322;-68
2022/06/26 10:46:21;;;;;;;;;;;;;;;30.69;38.99;99504.78;5016752;28;19926;-68
2022/06/26 10:48:51;;;;;;;;;;;;;;;30.88;38.45;99498.78;5016726;28;19957;-69
2022/06/26 10:51:29;;;;;;;;;;;;;;;30.88;38.70;99496.94;4999643;28;19921;-68
2022/06/26 10:53:58;;;;;;;;;;;;;;;30.86;38.94;99495.41;5016587;28;19921;-68
2022/06/26 10:56:26;;;;;;;;;;;;;;;30.88;37.94;99488.22;5016786;28;19945;-68
2022/06/26 10:58:59;;;;;;;;;;;;;;;30.83;37.63;99490.44;5016447;28;19921;-69
2022/06/26 11:01:28;;;;;;;;;;;;;;;31.03;39.12;99489.53;5016479;28;19921;-68
2022/06/26 11:03:58;;;;;;;;;;;;;;;30.94;38.01;99499.09;5016471;28;20339;-68
2022/06/26 11:06:28;;;;;;;;;;;;;;;30.96;38.14;99496.31;5016301;28;19921;-68
2022/06/26 11:08:57;;;;;;;;;;;;;;;31.29;38.38;99487.25;5016382;28;20434;-68
2022/06/26 11:11:31;;;;;;;;;;;;;;;31.33;38.57;99486.81;5015998;28;19927;-68
2022/06/26 11:14:01;;;;;;;;;;;;;;;31.43;38.03;99485.06;5016142;28;19925;-68
2022/06/26 11:16:30;;;;;;;;;;;;;;;31.55;37.82;99483.97;5016723;28;20059;-68
2022/06/26 11:18:59;;;;;;;;;;;;;;;31.71;38.02;99480.75;5016264;28;19925;-68
2022/06/26 11:21:31;;;;;;;;;;;;;;;31.87;37.44;99482.81;5013239;28;20438;-66
2022/06/26 11:24:00;;;;;;;;;;;;;;;31.90;36.84;99493.09;5015663;28;19928;-68
2022/06/26 11:26:29;;;;;;;;;;;;;;;31.98;36.63;99488.00;5016093;28;20275;-68
2022/06/26 11:28:59;;;;;;;;;;;;;;;31.89;36.73;99480.88;5015904;28;19975;-68
2022/06/26 11:31:29;;;;;;;;;;;;;;;32.01;37.95;99479.78;5015488;28;19922;-68
2022/06/26 11:34:07;;;;;;;;;;;;;;;31.99;37.00;99484.34;5014722;28;19936;-68
2022/06/26 11:36:48;;;;;;;;;;;;;;;31.89;36.33;99480.88;5015809;28;19928;-68
2022/06/26 11:39:16;;;;;;;;;;;;;;;31.77;36.33;99473.09;5016155;28;19922;-68
2022/06/26 11:41:45;;;;;;;;;;;;;;;31.83;36.39;99462.94;5015593;28;19975;-67
2022/06/26 11:44:29;;;;;;;;;;;;;;;31.79;36.78;99465.88;5015528;28;19969;-68
2022/06/26 11:46:57;;;;;;;;;;;;;;;31.77;36.60;99467.81;5016002;28;19960;-69
2022/06/26 11:49:26;;;;;;;;;;;;;;;31.91;36.47;99468.38;5016051;28;19953;-68
2022/06/26 11:51:59;;;;;;;;;;;;;;;31.98;35.49;99469.50;5015928;28;20015;-69
2022/06/26 11:54:27;;;;;;;;;;;;;;;31.93;35.56;99467.25;5015370;28;19921;-68
2022/06/26 11:56:56;;;;;;;;;;;;;;;31.96;35.48;99466.16;5015379;28;19922;-68
2022/06/26 11:59:24;;;;;;;;;;;;;;;32.18;35.79;99471.09;5015546;28;19921;-69
2022/06/26 12:01:53;;;;;;;;;;;;;;;32.25;35.41;99466.94;5015050;28;19922;-69
2022/06/26 12:04:22;;;;;;;;;;;;;;;32.18;35.10;99455.25;5015173;28;19922;-69
2022/06/26 12:06:52;;;;;;;;;;;;;;;32.30;34.64;99465.53;5015008;28;19930;-68
2022/06/26 12:09:25;;;;;;;;;;;;;;;32.37;33.98;99466.59;5015162;28;20333;-68
2022/06/26 12:11:55;;;;;;;;;;;;;;;32.27;33.23;99457.88;5014620;28;19921;-68
2022/06/26 12:14:25;;;;;;;;;;;;;;;32.26;33.17;99458.03;5015120;28;19948;-68
2022/06/26 12:16:55;;;;;;;;;;;;;;;32.30;33.06;99449.66;5015324;28;20355;-67
2022/06/26 12:19:24;;;;;;;;;;;;;;;32.30;32.22;99459.41;5014796;28;19921;-68
2022/06/26 12:21:54;;;;;;;;;;;;;;;32.33;32.08;99456.47;5014983;28;19921;-69
2022/06/26 12:24:24;;;;;;;;;;;;;;;32.29;31.57;99453.31;5014879;28;20000;-68
2022/06/26 12:26:53;;;;;;;;;;;;;;;32.28;31.74;99446.34;5014801;28;19960;-67
2022/06/26 12:29:22;;;;;;;;;;;;;;;32.33;32.32;99448.53;5015101;28;19965;-69
2022/06/26 12:31:52;;;;;;;;;;;;;;;32.47;32.21;99455.19;5014855;28;19948;-68
2022/06/26 12:34:24;;;;;;;;;;;;;;;32.53;31.44;99447.53;5014633;28;19921;-68
2022/06/26 12:36:52;;;;;;;;;;;;;;;32.51;31.35;99452.13;5014988;28;20371;-69
2022/06/26 12:39:21;;;;;;;;;;;;;;;32.45;31.62;99455.31;5014978;28;20020;-67
2022/06/26 12:42:21;;;;;;;;;;;;;;;32.49;31.46;99454.03;5014049;28;19932;-69
2022/06/26 12:44:58;;;;;;;;;;;;;;;32.53;31.17;99450.19;5014636;28;19967;-69
2022/06/26 12:47:26;;;;;;;;;;;;;;;32.44;30.41;99446.56;5014957;28;19929;-68
2022/06/26 12:49:55;;;;;;;;;;;;;;;32.37;30.80;99449.94;5014526;28;19955;-69
2022/06/26 12:52:24;;;;;;;;;;;;;;;32.37;31.05;99439.38;5014588;28;20399;-69
2022/06/26 12:54:52;;;;;;;;;;;;;;;32.31;30.38;99432.00;5014729;28;19921;-68
2022/06/26 12:57:25;;;;;;;;;;;;;;;32.51;32.08;99436.28;5014424;28;20024;-68
2022/06/26 12:59:54;;;;;;;;;;;;;;;32.56;31.15;99431.38;5014404;28;20419;-69
2022/06/26 13:02:26;;;;;;;;;;;;;;;32.54;31.14;99435.97;5014585;28;19975;-68
2022/06/26 13:04:54;;;;;;;;;;;;;;;32.64;31.51;99433.28;5014673;28;20358;-69
2022/06/26 13:07:23;;;;;;;;;;;;;;;32.58;30.51;99432.06;5014529;28;19925;-68
2022/06/26 13:09:57;;;;;;;;;;;;;;;32.47;30.61;99432.22;5014293;28;19921;-67
2022/06/26 13:12:27;;;;;;;;;;;;;;;32.38;30.43;99435.72;5013025;28;19921;-68
2022/06/26 13:15:05;;;;;;;;;;;;;;;32.28;30.20;99434.94;5014605;28;19976;-68
2022/06/26 13:17:37;;;;;;;;;;;;;;;32.25;30.21;99436.06;5014500;28;20016;-67
2022/06/26 13:20:07;;;;;;;;;;;;;;;32.27;30.15;99430.63;5014165;28;19925;-68
2022/06/26 13:22:44;;;;;;;;;;;;;;;32.28;30.44;99442.84;5014404;28;19921;-66
2022/06/26 13:25:13;;;;;;;;;;;;;;;32.22;29.98;99438.16;5014447;28;19932;-68
2022/06/26 13:27:43;;;;;;;;;;;;;;;32.18;30.18;99440.25;5014090;28;19922;-68